sensor_id;sensor_type;location;lat;lon;timestamp;pressure;altitude;pressure_sealevel;temperature;humidity
74921;BME280;63483;47.384;8.860;2022-10-16T00:00:44;94597.91;;;12.15;53.29
74921;BME280;63483;47.384;8.860;2022-10-16T00:03:10;94605.97;;;12.13;53.45
74921;BME280;63483;47.384;8.860;2022-10-16T00:05:41;94597.91;;;12.15;53.20
74921;BME280;63483;47.384;8.860;2022-10-16T00:08:08;94604.16;;;12.13;53.32
74921;BME280;63483;47.384;8.860;2022-10-16T00:10:34;94608.41;;;12.15;53.32
74921;BME280;63483;47.384;8.860;2022-10-16T00:12:59;94597.91;;;12.15;53.27
74921;BME280;63483;47.384;8.860;2022-10-16T00:15:25;94599.88;;;12.12;53.33
74921;BME280;63483;47.384;8.860;2022-10-16T00:17:50;94602.50;;;12.12;53.33
74921;BME280;63483;47.384;8.860;2022-10-16T00:20:15;94601.53;;;12.13;53.49
74921;BME280;63483;47.384;8.860;2022-10-16T00:22:41;94598.28;;;12.11;53.60
74921;BME280;63483;47.384;8.860;2022-10-16T00:25:06;94601.91;;;12.10;53.53
74921;BME280;63483;47.384;8.860;2022-10-16T00:27:33;94590.59;;;12.10;53.58
74921;BME280;63483;47.384;8.860;2022-10-16T00:29:58;94593.41;;;12.08;53.68
74921;BME280;63483;47.384;8.860;2022-10-16T00:32:24;94588.56;;;12.05;53.74
74921;BME280;63483;47.384;8.860;2022-10-16T00:34:49;94591.19;;;12.05;53.75
74921;BME280;63483;47.384;8.860;2022-10-16T00:37:14;94597.41;;;12.04;53.91
74921;BME280;63483;47.384;8.860;2022-10-16T00:39:40;94587.31;;;12.01;54.23
74921;BME280;63483;47.384;8.860;2022-10-16T00:42:05;94587.31;;;12.01;53.91
74921;BME280;63483;47.384;8.860;2022-10-16T00:44:50;94581.28;;;12.07;54.01
74921;BME280;63483;47.384;8.860;2022-10-16T00:47:42;94590.97;;;12.07;54.17
74921;BME280;63483;47.384;8.860;2022-10-16T00:50:24;94588.56;;;12.05;53.74
74921;BME280;63483;47.384;8.860;2022-10-16T00:52:52;94594.59;;;12.06;53.93
74921;BME280;63483;47.384;8.860;2022-10-16T00:55:18;94599.06;;;12.05;53.97
74921;BME280;63483;47.384;8.860;2022-10-16T00:57:44;94595.41;;;12.06;53.96
74921;BME280;63483;47.384;8.860;2022-10-16T01:00:13;94600.28;;;12.09;54.15
74921;BME280;63483;47.384;8.860;2022-10-16T01:02:39;94603.53;;;12.11;54.06
74921;BME280;63483;47.384;8.860;2022-10-16T01:05:05;94604.53;;;12.10;53.89
74921;BME280;63483;47.384;8.860;2022-10-16T01:07:46;94601.53;;;12.13;54.09
74921;BME280;63483;47.384;8.860;2022-10-16T01:10:35;94604.16;;;12.13;54.37
74921;BME280;63483;47.384;8.860;2022-10-16T01:13:17;94610.38;;;12.12;54.22
74921;BME280;63483;47.384;8.860;2022-10-16T01:15:55;94612.03;;;12.13;54.05
74921;BME280;63483;47.384;8.860;2022-10-16T01:21:16;94613.66;;;12.15;54.13
74921;BME280;63483;47.384;8.860;2022-10-16T01:24:08;94613.66;;;12.15;54.24
74921;BME280;63483;47.384;8.860;2022-10-16T01:29:34;94608.03;;;12.18;54.34
74921;BME280;63483;47.384;8.860;2022-10-16T01:32:15;94613.28;;;12.18;54.05
74921;BME280;63483;47.384;8.860;2022-10-16T01:37:25;94611.25;;;12.20;54.06
74921;BME280;63483;47.384;8.860;2022-10-16T01:39:55;94608.03;;;12.18;54.08
74921;BME280;63483;47.384;8.860;2022-10-16T01:42:29;94612.28;;;12.19;53.96
74921;BME280;63483;47.384;8.860;2022-10-16T01:44:56;94608.41;;;12.15;54.29
74921;BME280;63483;47.384;8.860;2022-10-16T01:47:25;94610.84;;;12.16;54.19
74921;BME280;63483;47.384;8.860;2022-10-16T01:49:52;94610.00;;;12.16;54.44
74921;BME280;63483;47.384;8.860;2022-10-16T01:52:22;94607.38;;;12.16;54.27
74921;BME280;63483;47.384;8.860;2022-10-16T01:54:52;94613.28;;;12.18;54.02
74921;BME280;63483;47.384;8.860;2022-10-16T01:57:20;94623.78;;;12.18;54.02
74921;BME280;63483;47.384;8.860;2022-10-16T01:59:50;94621.75;;;12.20;54.23
74921;BME280;63483;47.384;8.860;2022-10-16T02:02:18;94612.88;;;12.21;54.01
74921;BME280;63483;47.384;8.860;2022-10-16T02:05:05;94614.91;;;12.19;54.12
74921;BME280;63483;47.384;8.860;2022-10-16T02:07:33;94622.59;;;12.20;54.04
74921;BME280;63483;47.384;8.860;2022-10-16T02:09:59;94616.50;;;12.20;54.07
74921;BME280;63483;47.384;8.860;2022-10-16T02:12:28;94621.75;;;12.20;54.32
74921;BME280;63483;47.384;8.860;2022-10-16T02:14:55;94615.91;;;12.18;54.23
74921;BME280;63483;47.384;8.860;2022-10-16T02:17:21;94608.81;;;12.18;53.95
74921;BME280;63483;47.384;8.860;2022-10-16T02:19:48;94617.72;;;12.17;54.16
74921;BME280;63483;47.384;8.860;2022-10-16T02:22:30;94612.63;;;12.16;54.16
74921;BME280;63483;47.384;8.860;2022-10-16T02:25:06;94615.25;;;12.16;54.08
74921;BME280;63483;47.384;8.860;2022-10-16T02:30:12;94617.28;;;12.13;54.26
74921;BME280;63483;47.384;8.860;2022-10-16T02:32:42;94622.91;;;12.10;54.16
74921;BME280;63483;47.384;8.860;2022-10-16T02:35:10;94616.84;;;12.10;54.16
74921;BME280;63483;47.384;8.860;2022-10-16T02:37:36;94628.16;;;12.10;53.92
74921;BME280;63483;47.384;8.860;2022-10-16T02:40:04;94624.72;;;12.10;54.03
74921;BME280;63483;47.384;8.860;2022-10-16T02:42:35;94626.72;;;12.08;53.88
74921;BME280;63483;47.384;8.860;2022-10-16T02:45:02;94630.16;;;12.08;53.94
74921;BME280;63483;47.384;8.860;2022-10-16T02:47:28;94633.78;;;12.07;53.87
74921;BME280;63483;47.384;8.860;2022-10-16T02:49:54;94636.41;;;12.07;53.93
74921;BME280;63483;47.384;8.860;2022-10-16T02:52:19;94639.84;;;12.08;53.63
74921;BME280;63483;47.384;8.860;2022-10-16T02:54:44;94638.97;;;12.01;54.07
74921;BME280;63483;47.384;8.860;2022-10-16T02:57:10;94641.78;;;11.99;53.71
74921;BME280;63483;47.384;8.860;2022-10-16T02:59:35;94635.72;;;11.99;53.60
74921;BME280;63483;47.384;8.860;2022-10-16T03:02:01;94629.69;;;11.98;53.46
74921;BME280;63483;47.384;8.860;2022-10-16T03:04:26;94635.31;;;11.95;53.43
74921;BME280;63483;47.384;8.860;2022-10-16T03:06:51;94638.94;;;11.94;53.65
74921;BME280;63483;47.384;8.860;2022-10-16T03:09:17;94613.66;;;11.93;53.76
74921;BME280;63483;47.384;8.860;2022-10-16T03:11:42;94617.47;;;11.90;53.68
74921;BME280;63483;47.384;8.860;2022-10-16T03:14:07;94608.00;;;11.89;53.56
74921;BME280;63483;47.384;8.860;2022-10-16T03:16:32;94613.44;;;11.88;53.44
74921;BME280;63483;47.384;8.860;2022-10-16T03:18:58;94619.69;;;11.87;53.45
74921;BME280;63483;47.384;8.860;2022-10-16T03:21:23;94609.53;;;11.84;53.73
74921;BME280;63483;47.384;8.860;2022-10-16T03:23:48;94621.41;;;11.79;53.68
74921;BME280;63483;47.384;8.860;2022-10-16T03:26:14;94613.34;;;11.81;53.59
74921;BME280;63483;47.384;8.860;2022-10-16T03:28:39;94629.91;;;11.82;53.71
74921;BME280;63483;47.384;8.860;2022-10-16T03:31:04;94635.16;;;11.82;53.53
74921;BME280;63483;47.384;8.860;2022-10-16T03:33:30;94624.66;;;11.82;53.69
74921;BME280;63483;47.384;8.860;2022-10-16T03:35:55;94624.66;;;11.82;53.64
74921;BME280;63483;47.384;8.860;2022-10-16T03:38:21;94639.56;;;11.81;52.56
74921;BME280;63483;47.384;8.860;2022-10-16T03:40:46;94650.25;;;11.79;52.94
74921;BME280;63483;47.384;8.860;2022-10-16T03:43:12;94651.63;;;11.75;52.66
74921;BME280;63483;47.384;8.860;2022-10-16T03:45:37;94660.00;;;11.64;53.27
74921;BME280;63483;47.384;8.860;2022-10-16T03:48:03;94660.00;;;11.64;53.30
74921;BME280;63483;47.384;8.860;2022-10-16T03:50:28;94660.00;;;11.64;53.64
74921;BME280;63483;47.384;8.860;2022-10-16T03:52:54;94657.19;;;11.66;53.54
74921;BME280;63483;47.384;8.860;2022-10-16T03:55:19;94660.38;;;11.61;53.12
74921;BME280;63483;47.384;8.860;2022-10-16T03:57:45;94663.19;;;11.59;53.37
74921;BME280;63483;47.384;8.860;2022-10-16T04:00:11;94657.09;;;11.59;53.28
74921;BME280;63483;47.384;8.860;2022-10-16T04:02:36;94657.09;;;11.59;53.21
74921;BME280;63483;47.384;8.860;2022-10-16T04:05:02;94666.00;;;11.58;53.04
74921;BME280;63483;47.384;8.860;2022-10-16T04:07:28;94664.38;;;11.57;53.19
74921;BME280;63483;47.384;8.860;2022-10-16T04:09:53;94666.34;;;11.55;52.94
74921;BME280;63483;47.384;8.860;2022-10-16T04:12:19;94652.19;;;11.49;53.48
74921;BME280;63483;47.384;8.860;2022-10-16T04:14:44;94669.09;;;11.47;53.40
74921;BME280;63483;47.384;8.860;2022-10-16T04:17:09;94664.22;;;11.43;53.28
74921;BME280;63483;47.384;8.860;2022-10-16T04:19:35;94667.84;;;11.42;53.44
74921;BME280;63483;47.384;8.860;2022-10-16T04:22:00;94661.13;;;11.40;53.31
74921;BME280;63483;47.384;8.860;2022-10-16T04:24:25;94671.81;;;11.38;53.54
74921;BME280;63483;47.384;8.860;2022-10-16T04:26:51;94668.94;;;11.33;53.65
74921;BME280;63483;47.384;8.860;2022-10-16T04:29:16;94663.59;;;11.26;53.84
74921;BME280;63483;47.384;8.860;2022-10-16T04:31:41;94656.81;;;11.32;53.44
74921;BME280;63483;47.384;8.860;2022-10-16T04:34:07;94666.69;;;11.30;53.72
74921;BME280;63483;47.384;8.860;2022-10-16T04:36:32;94666.69;;;11.30;53.58
74921;BME280;63483;47.384;8.860;2022-10-16T04:38:57;94664.44;;;11.27;53.78
74921;BME280;63483;47.384;8.860;2022-10-16T04:41:23;94665.25;;;11.28;53.56
74921;BME280;63483;47.384;8.860;2022-10-16T04:43:48;94664.25;;;11.29;53.75
74921;BME280;63483;47.384;8.860;2022-10-16T04:46:13;94669.31;;;11.30;53.70
74921;BME280;63483;47.384;8.860;2022-10-16T04:48:39;94672.56;;;11.32;53.71
74921;BME280;63483;47.384;8.860;2022-10-16T04:51:04;94672.56;;;11.32;53.75
74921;BME280;63483;47.384;8.860;2022-10-16T04:53:29;94669.75;;;11.34;53.71
74921;BME280;63483;47.384;8.860;2022-10-16T04:55:55;94675.44;;;11.37;53.68
74921;BME280;63483;47.384;8.860;2022-10-16T04:58:22;94677.06;;;11.38;53.59
74921;BME280;63483;47.384;8.860;2022-10-16T05:00:47;94681.50;;;11.38;53.57
74921;BME280;63483;47.384;8.860;2022-10-16T05:03:13;94679.44;;;11.33;53.68
74921;BME280;63483;47.384;8.860;2022-10-16T05:05:42;94678.78;;;11.31;53.73
74921;BME280;63483;47.384;8.860;2022-10-16T05:08:08;94684.69;;;11.33;53.64
74921;BME280;63483;47.384;8.860;2022-10-16T05:10:34;94679.44;;;11.33;53.79
74921;BME280;63483;47.384;8.860;2022-10-16T05:12:59;94692.34;;;11.35;53.35
74921;BME280;63483;47.384;8.860;2022-10-16T05:15:25;94680.69;;;11.37;53.37
74921;BME280;63483;47.384;8.860;2022-10-16T05:17:53;94685.56;;;11.40;53.45
74921;BME280;63483;47.384;8.860;2022-10-16T05:20:18;94691.38;;;11.36;53.33
74921;BME280;63483;47.384;8.860;2022-10-16T05:22:44;94698.88;;;11.39;53.19
74921;BME280;63483;47.384;8.860;2022-10-16T05:25:09;94691.19;;;11.37;53.39
74921;BME280;63483;47.384;8.860;2022-10-16T05:27:34;94695.16;;;11.33;53.32
74921;BME280;63483;47.384;8.860;2022-10-16T05:30:00;94693.53;;;11.32;53.50
74921;BME280;63483;47.384;8.860;2022-10-16T05:32:25;94690.28;;;11.30;53.03
74921;BME280;63483;47.384;8.860;2022-10-16T05:34:50;94690.66;;;11.27;53.24
74921;BME280;63483;47.384;8.860;2022-10-16T05:37:16;94689.38;;;11.23;53.35
74921;BME280;63483;47.384;8.860;2022-10-16T05:39:41;94694.63;;;11.23;53.56
74921;BME280;63483;47.384;8.860;2022-10-16T05:42:06;94695.81;;;11.20;53.35
74921;BME280;63483;47.384;8.860;2022-10-16T05:44:32;94688.78;;;11.21;53.42
74921;BME280;63483;47.384;8.860;2022-10-16T05:46:57;94696.16;;;11.17;53.42
74921;BME280;63483;47.384;8.860;2022-10-16T05:49:23;94698.59;;;11.19;53.37
74921;BME280;63483;47.384;8.860;2022-10-16T05:51:48;94691.72;;;11.18;53.23
74921;BME280;63483;47.384;8.860;2022-10-16T05:54:14;94690.75;;;11.19;53.43
74921;BME280;63483;47.384;8.860;2022-10-16T05:56:39;94695.38;;;11.17;53.54
74921;BME280;63483;47.384;8.860;2022-10-16T05:59:05;94698.97;;;11.16;53.34
74921;BME280;63483;47.384;8.860;2022-10-16T06:01:31;94695.38;;;11.17;53.27
74921;BME280;63483;47.384;8.860;2022-10-16T06:03:57;94702.22;;;11.18;53.21
74921;BME280;63483;47.384;8.860;2022-10-16T06:06:24;94700.25;;;11.20;53.20
74921;BME280;63483;47.384;8.860;2022-10-16T06:08:51;94708.09;;;11.20;53.37
74921;BME280;63483;47.384;8.860;2022-10-16T06:11:22;94709.09;;;11.19;53.21
74921;BME280;63483;47.384;8.860;2022-10-16T06:13:52;94714.34;;;11.19;53.56
74921;BME280;63483;47.384;8.860;2022-10-16T06:16:18;94712.69;;;11.18;53.67
74921;BME280;63483;47.384;8.860;2022-10-16T06:18:44;94713.53;;;11.18;53.47
74921;BME280;63483;47.384;8.860;2022-10-16T06:21:18;94719.22;;;11.22;53.67
74921;BME280;63483;47.384;8.860;2022-10-16T06:23:44;94721.66;;;11.23;53.47
74921;BME280;63483;47.384;8.860;2022-10-16T06:26:12;94732.97;;;11.24;53.33
74921;BME280;63483;47.384;8.860;2022-10-16T06:28:38;94722.47;;;11.24;53.61
74921;BME280;63483;47.384;8.860;2022-10-16T06:31:05;94721.66;;;11.23;53.50
74921;BME280;63483;47.384;8.860;2022-10-16T06:33:31;94726.53;;;11.26;53.61
74921;BME280;63483;47.384;8.860;2022-10-16T06:36:13;94728.97;;;11.28;53.61
74921;BME280;63483;47.384;8.860;2022-10-16T06:38:40;94729.34;;;11.25;53.59
74921;BME280;63483;47.384;8.860;2022-10-16T06:41:06;94740.84;;;11.24;53.70
74921;BME280;63483;47.384;8.860;2022-10-16T06:43:32;94738.66;;;11.28;53.70
74921;BME280;63483;47.384;8.860;2022-10-16T06:45:58;94737.84;;;11.27;53.65
74921;BME280;63483;47.384;8.860;2022-10-16T06:48:24;94742.91;;;11.29;53.73
74921;BME280;63483;47.384;8.860;2022-10-16T06:51:00;94735.47;;;11.32;53.71
74921;BME280;63483;47.384;8.860;2022-10-16T06:53:26;94736.13;;;11.34;53.68
74921;BME280;63483;47.384;8.860;2022-10-16T06:55:52;94749.06;;;11.36;53.50
74921;BME280;63483;47.384;8.860;2022-10-16T06:58:18;94744.81;;;11.35;53.70
74921;BME280;63483;47.384;8.860;2022-10-16T07:00:43;94742.00;;;11.36;53.65
74921;BME280;63483;47.384;8.860;2022-10-16T07:03:08;94755.72;;;11.38;53.72
74921;BME280;63483;47.384;8.860;2022-10-16T07:05:38;94767.94;;;11.46;53.89
74921;BME280;63483;47.384;8.860;2022-10-16T07:08:03;94753.38;;;11.43;53.58
74921;BME280;63483;47.384;8.860;2022-10-16T07:10:30;94755.34;;;11.41;53.84
74921;BME280;63483;47.384;8.860;2022-10-16T07:12:56;94769.13;;;11.43;53.72
74921;BME280;63483;47.384;8.860;2022-10-16T07:15:21;94774.81;;;11.47;53.61
74921;BME280;63483;47.384;8.860;2022-10-16T07:17:46;94773.63;;;11.50;53.93
74921;BME280;63483;47.384;8.860;2022-10-16T07:20:12;94775.28;;;11.51;53.92
74921;BME280;63483;47.384;8.860;2022-10-16T07:22:37;94785.41;;;11.54;54.02
74921;BME280;63483;47.384;8.860;2022-10-16T07:25:03;94795.88;;;11.54;53.98
74921;BME280;63483;47.384;8.860;2022-10-16T07:27:28;94798.50;;;11.54;53.97
74921;BME280;63483;47.384;8.860;2022-10-16T07:29:54;94802.75;;;11.55;54.27
74921;BME280;63483;47.384;8.860;2022-10-16T07:32:19;94805.81;;;11.58;54.18
74921;BME280;63483;47.384;8.860;2022-10-16T07:34:44;94808.88;;;11.62;54.33
74921;BME280;63483;47.384;8.860;2022-10-16T07:37:10;94813.16;;;11.63;54.28
74921;BME280;63483;47.384;8.860;2022-10-16T07:39:36;94819.66;;;11.67;54.10
74921;BME280;63483;47.384;8.860;2022-10-16T07:42:01;94816.84;;;11.69;54.32
74921;BME280;63483;47.384;8.860;2022-10-16T07:44:27;94815.69;;;11.71;54.12
74921;BME280;63483;47.384;8.860;2022-10-16T07:46:52;94818.31;;;11.71;54.17
74921;BME280;63483;47.384;8.860;2022-10-16T07:49:17;94819.91;;;11.72;53.94
74921;BME280;63483;47.384;8.860;2022-10-16T07:51:43;94830.41;;;11.72;54.21
74921;BME280;63483;47.384;8.860;2022-10-16T07:54:09;94816.31;;;11.73;54.31
74921;BME280;63483;47.384;8.860;2022-10-16T07:56:35;94819.91;;;11.72;54.37
74921;BME280;63483;47.384;8.860;2022-10-16T07:59:00;94827.16;;;11.70;54.03
74921;BME280;63483;47.384;8.860;2022-10-16T08:01:26;94835.22;;;11.69;53.96
74921;BME280;63483;47.384;8.860;2022-10-16T08:03:51;94828.81;;;11.71;53.98
74921;BME280;63483;47.384;8.860;2022-10-16T08:06:18;94835.28;;;11.75;54.00
74921;BME280;63483;47.384;8.860;2022-10-16T08:08:44;94842.81;;;11.78;54.04
74921;BME280;63483;47.384;8.860;2022-10-16T08:11:10;94848.69;;;11.81;54.31
74921;BME280;63483;47.384;8.860;2022-10-16T08:13:36;94852.97;;;11.97;59.43
74921;BME280;63483;47.384;8.860;2022-10-16T08:16:02;94846.44;;;12.07;56.64
74921;BME280;63483;47.384;8.860;2022-10-16T08:18:33;94849.31;;;12.12;56.09
74921;BME280;63483;47.384;8.860;2022-10-16T08:20:59;94846.94;;;12.18;55.70
74921;BME280;63483;47.384;8.860;2022-10-16T08:23:26;94849.63;;;12.24;56.28
74921;BME280;63483;47.384;8.860;2022-10-16T08:25:53;94847.66;;;12.26;55.41
74921;BME280;63483;47.384;8.860;2022-10-16T08:28:18;94848.09;;;12.30;55.86
74921;BME280;63483;47.384;8.860;2022-10-16T08:30:44;94843.28;;;12.34;55.45
74921;BME280;63483;47.384;8.860;2022-10-16T08:33:09;94855.88;;;12.38;56.54
74921;BME280;63483;47.384;8.860;2022-10-16T08:35:35;94854.75;;;12.47;55.88
74921;BME280;63483;47.384;8.860;2022-10-16T08:38:03;94857.25;;;12.56;56.15
74921;BME280;63483;47.384;8.860;2022-10-16T08:40:30;94853.69;;;12.63;55.23
74921;BME280;63483;47.384;8.860;2022-10-16T08:43:29;94853.34;;;12.73;55.42
74921;BME280;63483;47.384;8.860;2022-10-16T08:48:39;94851.91;;;12.86;55.10
74921;BME280;63483;47.384;8.860;2022-10-16T08:51:09;94857.00;;;12.94;55.53
74921;BME280;63483;47.384;8.860;2022-10-16T08:56:07;94859.75;;;13.07;55.67
74921;BME280;63483;47.384;8.860;2022-10-16T08:58:33;94859.63;;;13.15;55.75
74921;BME280;63483;47.384;8.860;2022-10-16T09:01:01;94859.84;;;13.21;55.92
74921;BME280;63483;47.384;8.860;2022-10-16T09:03:55;94846.97;;;13.26;55.80
74921;BME280;63483;47.384;8.860;2022-10-16T09:16:46;94865.03;;;13.64;56.65
74921;BME280;63483;47.384;8.860;2022-10-16T09:19:38;94874.41;;;13.73;56.41
74921;BME280;63483;47.384;8.860;2022-10-16T09:22:17;94866.72;;;13.78;56.06
74921;BME280;63483;47.384;8.860;2022-10-16T09:24:43;94874.88;;;13.83;55.92
74921;BME280;63483;47.384;8.860;2022-10-16T09:27:11;94881.78;;;13.91;56.17
74921;BME280;63483;47.384;8.860;2022-10-16T09:29:37;94875.94;;;13.96;56.39
74921;BME280;63483;47.384;8.860;2022-10-16T09:32:19;94868.69;;;14.04;56.20
74921;BME280;63483;47.384;8.860;2022-10-16T09:34:49;94867.09;;;14.10;55.80
74921;BME280;63483;47.384;8.860;2022-10-16T09:37:18;94869.53;;;14.18;55.61
74921;BME280;63483;47.384;8.860;2022-10-16T09:39:52;94867.75;;;14.26;55.64
74921;BME280;63483;47.384;8.860;2022-10-16T09:42:28;94874.84;;;14.32;55.77
74921;BME280;63483;47.384;8.860;2022-10-16T09:44:56;94879.38;;;14.38;55.47
74921;BME280;63483;47.384;8.860;2022-10-16T09:47:24;94872.28;;;14.45;55.41
74921;BME280;63483;47.384;8.860;2022-10-16T09:50:03;94865.41;;;14.51;55.10
74921;BME280;63483;47.384;8.860;2022-10-16T09:52:31;94865.84;;;14.61;55.67
74921;BME280;63483;47.384;8.860;2022-10-16T09:55:09;94865.47;;;14.71;55.17
74921;BME280;63483;47.384;8.860;2022-10-16T09:57:51;94869.53;;;14.80;54.56
74921;BME280;63483;47.384;8.860;2022-10-16T10:00:18;94872.41;;;14.85;53.76
74921;BME280;63483;47.384;8.860;2022-10-16T10:02:44;94869.97;;;14.90;52.94
74921;BME280;63483;47.384;8.860;2022-10-16T10:05:29;94868.75;;;15.00;52.30
74921;BME280;63483;47.384;8.860;2022-10-16T10:07:59;94874.63;;;15.08;51.57
74921;BME280;63483;47.384;8.860;2022-10-16T10:10:28;94874.44;;;15.17;49.30
74921;BME280;63483;47.384;8.860;2022-10-16T10:12:55;94868.75;;;15.26;50.83
74921;BME280;63483;47.384;8.860;2022-10-16T10:15:21;94870.00;;;15.37;50.70
74921;BME280;63483;47.384;8.860;2022-10-16T10:17:51;94873.25;;;15.46;50.47
74921;BME280;63483;47.384;8.860;2022-10-16T10:20:28;94865.72;;;15.56;50.45
74921;BME280;63483;47.384;8.860;2022-10-16T10:22:55;94869.13;;;15.63;49.34
74921;BME280;63483;47.384;8.860;2022-10-16T10:33:35;94859.53;;;15.89;49.95
74921;BME280;63483;47.384;8.860;2022-10-16T10:38:50;94864.19;;;16.01;49.31
74921;BME280;63483;47.384;8.860;2022-10-16T10:44:54;94852.41;;;16.10;48.01
74921;BME280;63483;47.384;8.860;2022-10-16T10:47:40;94857.25;;;16.13;45.87
74921;BME280;63483;47.384;8.860;2022-10-16T10:50:49;94848.91;;;16.16;43.75
74921;BME280;63483;47.384;8.860;2022-10-16T11:01:15;94845.28;;;16.49;44.49
74921;BME280;63483;47.384;8.860;2022-10-16T11:07:02;94843.34;;;16.70;44.63
74921;BME280;63483;47.384;8.860;2022-10-16T11:09:36;94839.41;;;16.79;40.78
74921;BME280;63483;47.384;8.860;2022-10-16T11:12:07;94836.53;;;16.87;41.68
74921;BME280;63483;47.384;8.860;2022-10-16T11:14:49;94845.06;;;16.89;42.71
74921;BME280;63483;47.384;8.860;2022-10-16T11:17:23;94834.25;;;16.91;41.09
74921;BME280;63483;47.384;8.860;2022-10-16T11:22:49;94830.06;;;17.08;42.18
74921;BME280;63483;47.384;8.860;2022-10-16T11:25:19;94834.69;;;17.13;42.81
74921;BME280;63483;47.384;8.860;2022-10-16T11:28:03;94831.41;;;17.17;44.52
74921;BME280;63483;47.384;8.860;2022-10-16T11:30:35;94820.81;;;17.17;42.86
74921;BME280;63483;47.384;8.860;2022-10-16T11:33:22;94827.03;;;17.30;42.97
74921;BME280;63483;47.384;8.860;2022-10-16T11:35:58;94818.53;;;17.46;38.58
74921;BME280;63483;47.384;8.860;2022-10-16T11:41:03;94812.78;;;17.49;41.17
74921;BME280;63483;47.384;8.860;2022-10-16T11:43:39;94821.25;;;17.58;42.73
74921;BME280;63483;47.384;8.860;2022-10-16T11:46:18;94815.91;;;17.65;43.24
74921;BME280;63483;47.384;8.860;2022-10-16T11:48:50;94815.63;;;17.73;41.02
74921;BME280;63483;47.384;8.860;2022-10-16T11:51:40;94808.19;;;17.82;40.54
74921;BME280;63483;47.384;8.860;2022-10-16T11:56:38;94805.84;;;17.92;40.82
74921;BME280;63483;47.384;8.860;2022-10-16T11:59:34;94797.16;;;18.03;42.02
74921;BME280;63483;47.384;8.860;2022-10-16T12:04:51;94797.41;;;18.14;41.08
74921;BME280;63483;47.384;8.860;2022-10-16T12:07:27;94796.53;;;18.20;41.03
74921;BME280;63483;47.384;8.860;2022-10-16T12:09:56;94795.63;;;18.26;39.42
74921;BME280;63483;47.384;8.860;2022-10-16T12:17:48;94794.81;;;18.44;39.77
74921;BME280;63483;47.384;8.860;2022-10-16T12:22:54;94798.06;;;18.58;39.69
74921;BME280;63483;47.384;8.860;2022-10-16T12:25:26;94801.31;;;18.60;38.85
74921;BME280;63483;47.384;8.860;2022-10-16T12:27:59;94802.03;;;18.67;38.93
74921;BME280;63483;47.384;8.860;2022-10-16T12:30:27;94800.16;;;18.56;39.72
74921;BME280;63483;47.384;8.860;2022-10-16T12:32:58;94796.84;;;18.72;39.59
74921;BME280;63483;47.384;8.860;2022-10-16T12:35:28;94789.38;;;18.93;38.84
74921;BME280;63483;47.384;8.860;2022-10-16T12:38:05;94794.22;;;18.96;38.11
74921;BME280;63483;47.384;8.860;2022-10-16T12:40:33;94784.19;;;18.98;38.71
74921;BME280;63483;47.384;8.860;2022-10-16T12:43:11;94784.00;;;19.00;38.82
74921;BME280;63483;47.384;8.860;2022-10-16T12:45:37;94781.91;;;19.02;39.31
74921;BME280;63483;47.384;8.860;2022-10-16T12:48:17;94779.28;;;19.14;38.41
74921;BME280;63483;47.384;8.860;2022-10-16T12:50:43;94775.22;;;19.11;38.76
74921;BME280;63483;47.384;8.860;2022-10-16T12:53:26;94780.31;;;19.24;37.62
74921;BME280;63483;47.384;8.860;2022-10-16T12:56:19;94781.13;;;19.13;40.28
74921;BME280;63483;47.384;8.860;2022-10-16T13:01:56;94779.28;;;19.14;40.34
74921;BME280;63483;47.384;8.860;2022-10-16T13:04:54;94772.22;;;19.07;39.21
74921;BME280;63483;47.384;8.860;2022-10-16T13:12:57;94780.91;;;19.15;40.00
74921;BME280;63483;47.384;8.860;2022-10-16T13:18:43;94778.00;;;19.40;36.37
74921;BME280;63483;47.384;8.860;2022-10-16T13:26:45;94774.75;;;19.38;34.67
74921;BME280;63483;47.384;8.860;2022-10-16T13:29:13;94777.16;;;19.39;36.36
74921;BME280;63483;47.384;8.860;2022-10-16T13:31:39;94772.00;;;19.33;34.58
74921;BME280;63483;47.384;8.860;2022-10-16T13:34:05;94775.66;;;19.55;33.85
74921;BME280;63483;47.384;8.860;2022-10-16T13:36:46;94777.88;;;19.46;33.88
74921;BME280;63483;47.384;8.860;2022-10-16T13:39:22;94777.06;;;19.46;33.52
74921;BME280;63483;47.384;8.860;2022-10-16T13:42:04;94775.81;;;19.49;34.34
74921;BME280;63483;47.384;8.860;2022-10-16T13:44:40;94775.34;;;19.52;34.56
74921;BME280;63483;47.384;8.860;2022-10-16T13:47:17;94773.94;;;19.61;35.46
74921;BME280;63483;47.384;8.860;2022-10-16T13:49:42;94778.22;;;19.62;35.76
74921;BME280;63483;47.384;8.860;2022-10-16T13:52:19;94781.66;;;19.62;35.72
74921;BME280;63483;47.384;8.860;2022-10-16T13:54:45;94788.72;;;19.57;35.81
74921;BME280;63483;47.384;8.860;2022-10-16T13:57:14;94791.94;;;19.59;35.60
74921;BME280;63483;47.384;8.860;2022-10-16T13:59:40;94787.56;;;19.53;37.67
74921;BME280;63483;47.384;8.860;2022-10-16T14:02:18;94792.88;;;19.53;38.12
74921;BME280;63483;47.384;8.860;2022-10-16T14:04:46;94792.88;;;19.53;40.69
74921;BME280;63483;47.384;8.860;2022-10-16T14:07:20;94793.56;;;19.60;39.51
74921;BME280;63483;47.384;8.860;2022-10-16T14:09:50;94804.44;;;19.70;39.04
74921;BME280;63483;47.384;8.860;2022-10-16T14:12:16;94795.41;;;19.47;40.22
74921;BME280;63483;47.384;8.860;2022-10-16T14:14:46;94795.97;;;19.61;39.61
74921;BME280;63483;47.384;8.860;2022-10-16T14:17:15;94797.03;;;19.49;40.48
74921;BME280;63483;47.384;8.860;2022-10-16T14:19:46;94792.06;;;19.52;40.49
74921;BME280;63483;47.384;8.860;2022-10-16T14:24:54;94801.66;;;19.41;42.10
74921;BME280;63483;47.384;8.860;2022-10-16T14:27:35;94802.78;;;19.45;41.96
74921;BME280;63483;47.384;8.860;2022-10-16T14:32:33;94799.56;;;19.43;43.14
74921;BME280;63483;47.384;8.860;2022-10-16T14:34:58;94807.44;;;19.26;39.68
74921;BME280;63483;47.384;8.860;2022-10-16T14:37:28;94801.91;;;19.52;39.96
74921;BME280;63483;47.384;8.860;2022-10-16T14:39:54;94809.97;;;19.45;41.15
74921;BME280;63483;47.384;8.860;2022-10-16T14:42:22;94804.88;;;19.43;41.04
74921;BME280;63483;47.384;8.860;2022-10-16T14:44:52;94811.59;;;19.34;41.46